Silica, Minnesota
Current Conditions -  °F | °C
As of 5:38 AM on Saturday 20 Dec 2014 (Local Time) from KHIB Reporting Station
Light Snow Light Snow  
Wind Chill: 19°   Ceiling: 1000
Heat Index: 26°   Visibility: 1.5mi
Dew Point: 22°   Wind: 6mph
Humidity: 84%   Direction: 150°SSE
Pressure: 30.08"   Gusts: NA
Location:  47.4158°N, 93.0053°W
Report Text: KHIB 201138Z AUTO 15005KT 1 1/2SM -SN BR OVC010 M03/M06 A3008 RMK AO2 SNB1057 P0000 T10331056
Loading
Personal Weather Stations






























Interactive Weather Map New forecast layout! Learn more

10-Day Weather Forecast

Advertisements
Track Severe Weather on mobile